Time;durP1;ratioP1;P1;durP2;ratioP2;P2;SDS_P1;SDS_P2;PMS_P1;PMS_P2;Temp;Humidity;BMP_temperature;BMP_pressure;BME280_temperature;BME280_humidity;BME280_pressure;Samples;Min_cycle;Max_cycle;Signal;HPM_P1;HPM_P2
2022/01/03 00:00:58;;;;;;;6.82;1.40;;;26.50;99.90;;;;;;5074282;28;20188;-78
2022/01/03 00:03:28;;;;;;;7.00;1.48;;;26.80;99.90;;;;;;5066692;28;20204;-77
2022/01/03 00:06:00;;;;;;;6.72;1.10;;;27.20;99.90;;;;;;5073570;28;20201;-76
2022/01/03 00:08:32;;;;;;;5.88;0.90;;;27.70;99.90;;;;;;5063728;28;20665;-76
2022/01/03 00:11:03;;;;;;;6.18;1.20;;;28.10;99.90;;;;;;5081208;28;20193;-76
2022/01/03 00:13:36;;;;;;;6.55;1.30;;;28.00;99.90;;;;;;5068048;28;20712;-77
2022/01/03 00:16:07;;;;;;;5.18;1.00;;;27.80;99.90;;;;;;5068442;28;20209;-77
2022/01/03 00:18:37;;;;;;;5.10;1.10;;;27.50;99.90;;;;;;5078514;28;20712;-77
2022/01/03 00:21:14;;;;;;;5.88;1.13;;;27.60;99.90;;;;;;5074603;28;20200;-77
2022/01/03 00:23:51;;;;;;;3.92;1.00;;;27.90;99.90;;;;;;5079642;28;20675;-76
2022/01/03 00:26:26;;;;;;;4.38;0.80;;;28.30;99.90;;;;;;5082628;28;20199;-78
2022/01/03 00:29:02;;;;;;;3.65;0.70;;;28.60;99.90;;;;;;5082568;28;20192;-77
2022/01/03 00:31:38;;;;;;;3.63;0.77;;;28.80;99.90;;;;;;5065606;28;20279;-77
2022/01/03 00:34:10;;;;;;;4.55;0.90;;;29.00;99.90;;;;;;5074763;28;20188;-76
2022/01/03 00:36:42;;;;;;;4.47;1.20;;;29.40;99.90;;;;;;5071372;28;20221;-77
2022/01/03 00:39:13;;;;;;;6.00;1.20;;;29.50;99.90;;;;;;5059650;28;20208;-77
2022/01/03 00:41:48;;;;;;;4.88;0.90;;;29.40;99.90;;;;;;5054975;28;20205;-78
2022/01/03 00:44:21;;;;;;;5.95;1.23;;;29.40;99.90;;;;;;5071408;28;20200;-77
2022/01/03 00:46:54;;;;;;;5.18;1.27;;;29.00;99.90;;;;;;5063753;28;20194;-77
2022/01/03 00:49:25;;;;;;;7.38;1.70;;;28.90;99.90;;;;;;5054785;28;20571;-77
2022/01/03 00:51:56;;;;;;;9.82;1.67;;;28.70;99.90;;;;;;5081253;28;20545;-77
2022/01/03 00:54:26;;;;;;;9.65;1.73;;;28.30;99.90;;;;;;5071875;28;20206;-77
2022/01/03 00:57:04;;;;;;;9.60;1.50;;;27.90;99.90;;;;;;5072106;28;20593;-76
2022/01/03 00:59:45;;;;;;;7.53;1.65;;;27.70;99.90;;;;;;5073716;28;20561;-78
2022/01/03 01:02:18;;;;;;;4.82;1.02;;;28.00;99.90;;;;;;5065080;28;20200;-77
2022/01/03 01:04:49;;;;;;;11.57;1.50;;;28.10;99.90;;;;;;5071817;28;20565;-76
2022/01/03 01:07:20;;;;;;;5.95;0.90;;;27.80;99.90;;;;;;5075687;28;20204;-76
2022/01/03 01:09:53;;;;;;;6.47;1.20;;;27.70;99.90;;;;;;5073899;28;20208;-77
2022/01/03 01:12:26;;;;;;;5.97;1.10;;;27.80;99.90;;;;;;5055590;28;20220;-78
2022/01/03 01:14:58;;;;;;;8.73;1.20;;;27.80;99.90;;;;;;5072026;28;20753;-78
2022/01/03 01:17:33;;;;;;;7.18;1.10;;;28.20;99.90;;;;;;5058249;28;20213;-78
2022/01/03 01:20:03;;;;;;;7.07;1.23;;;28.20;99.90;;;;;;5055377;28;20654;-77
2022/01/03 01:22:35;;;;;;;9.45;1.38;;;28.00;99.90;;;;;;5067766;28;20185;-78
2022/01/03 01:27:45;;;;;;;8.18;1.02;;;27.80;99.90;;;;;;5074174;28;20201;-79
2022/01/03 01:28:16;;;;;;;5.70;1.10;;;27.90;99.90;;;;;;5072781;28;20300;-77
2022/01/03 01:30:53;;;;;;;6.15;1.25;;;28.20;99.90;;;;;;5082361;28;20319;-77
2022/01/03 01:33:23;;;;;;;2.65;0.95;;;28.30;99.90;;;;;;5072426;28;20197;-78
2022/01/03 01:36:00;;;;;;;6.45;1.30;;;28.50;99.90;;;;;;5073649;28;20186;-78
2022/01/03 01:38:34;;;;;;;8.40;1.52;;;28.50;99.90;;;;;;5072785;28;20219;-76
2022/01/03 01:41:09;;;;;;;5.78;1.17;;;28.60;99.90;;;;;;5058961;28;20216;-76
2022/01/03 01:43:41;;;;;;;8.07;1.27;;;28.50;99.90;;;;;;5074552;28;20562;-77
2022/01/03 01:46:15;;;;;;;8.75;1.30;;;28.40;99.90;;;;;;5075609;28;20201;-78
2022/01/03 01:48:48;;;;;;;4.75;0.90;;;28.10;99.90;;;;;;5069162;28;20580;-75
2022/01/03 01:51:21;;;;;;;9.05;1.55;;;28.10;99.90;;;;;;5074448;28;20287;-76
2022/01/03 01:53:53;;;;;;;6.47;1.50;;;28.10;99.90;;;;;;5070820;28;20201;-75
2022/01/03 01:56:24;;;;;;;6.47;1.23;;;28.10;99.90;;;;;;5066773;28;20197;-77
2022/01/03 01:59:12;;;;;;;7.45;1.20;;;27.90;99.90;;;;;;5072959;28;20196;-78
2022/01/03 02:01:55;;;;;;;6.85;1.27;;;27.90;99.90;;;;;;5072397;28;20203;-76
2022/01/03 02:04:50;;;;;;;6.38;1.00;;;28.00;99.90;;;;;;5073505;28;20197;-76
2022/01/03 02:07:46;;;;;;;5.25;1.00;;;28.10;99.90;;;;;;5072548;28;20201;-76
2022/01/03 02:10:18;;;;;;;4.88;0.70;;;27.90;99.90;;;;;;5059660;28;20204;-76
2022/01/03 02:12:50;;;;;;;3.50;1.00;;;28.00;99.90;;;;;;5053336;28;20189;-77
2022/01/03 02:15:22;;;;;;;2.28;0.88;;;28.20;99.90;;;;;;5066665;28;20247;-76
2022/01/03 02:17:55;;;;;;;3.33;0.90;;;28.10;99.90;;;;;;5063429;28;20217;-75
2022/01/03 02:20:29;;;;;;;6.43;0.90;;;28.20;99.90;;;;;;5063677;28;20246;-75
2022/01/03 02:23:00;;;;;;;4.15;0.90;;;28.40;99.90;;;;;;5072395;28;20310;-75
2022/01/03 02:25:31;;;;;;;4.32;0.95;;;28.40;99.90;;;;;;5073284;28;20220;-77
2022/01/03 02:28:01;;;;;;;2.88;1.00;;;28.40;99.90;;;;;;5070285;28;20204;-75
2022/01/03 02:30:33;;;;;;;4.95;0.82;;;28.30;99.90;;;;;;5072586;28;20231;-77
2022/01/03 02:33:04;;;;;;;4.20;0.77;;;28.20;99.90;;;;;;5072352;28;20196;-75
2022/01/03 02:35:38;;;;;;;6.38;1.02;;;28.20;99.90;;;;;;5072435;28;20189;-75
2022/01/03 02:38:09;;;;;;;8.30;1.23;;;28.10;99.90;;;;;;5068198;28;20220;-76
2022/01/03 02:40:40;;;;;;;5.85;0.85;;;28.10;99.90;;;;;;5053110;28;20665;-76
2022/01/03 02:43:11;;;;;;;4.63;1.00;;;27.90;99.90;;;;;;5059310;28;20208;-76
2022/01/03 02:45:42;;;;;;;5.70;1.08;;;28.00;99.90;;;;;;5066495;28;20201;-76
2022/01/03 02:48:13;;;;;;;3.58;0.85;;;28.00;99.90;;;;;;5060869;28;20197;-76
2022/01/03 02:50:45;;;;;;;6.03;1.25;;;28.00;99.90;;;;;;5071139;28;20200;-77
2022/01/03 02:53:17;;;;;;;5.70;1.08;;;27.90;99.90;;;;;;5069731;28;20193;-76
2022/01/03 02:55:48;;;;;;;7.85;1.50;;;28.00;99.90;;;;;;5071921;28;20331;-76
2022/01/03 02:58:18;;;;;;;7.07;1.00;;;28.00;99.90;;;;;;5064629;28;20604;-77
2022/01/03 03:00:52;;;;;;;5.25;1.10;;;28.00;99.90;;;;;;5073062;28;20193;-79
2022/01/03 03:03:24;;;;;;;4.28;1.30;;;28.10;99.90;;;;;;5071969;28;20196;-77
2022/01/03 03:05:58;;;;;;;7.07;1.40;;;28.00;99.90;;;;;;5073005;28;20204;-77
2022/01/03 03:08:29;;;;;;;7.13;1.40;;;28.20;99.90;;;;;;5071907;28;20251;-76
2022/01/03 03:11:00;;;;;;;6.22;1.42;;;28.20;99.90;;;;;;5053266;28;20276;-76
2022/01/03 03:13:30;;;;;;;8.32;1.20;;;28.20;99.90;;;;;;5052675;28;20762;-78
2022/01/03 03:16:03;;;;;;;7.13;1.30;;;28.10;99.90;;;;;;5051882;28;20197;-77
2022/01/03 03:18:34;;;;;;;6.10;1.30;;;28.10;99.90;;;;;;5052555;28;20213;-77
2022/01/03 03:21:06;;;;;;;3.30;0.98;;;28.20;99.90;;;;;;5052810;28;20196;-77
2022/01/03 03:23:37;;;;;;;5.28;1.15;;;28.10;99.90;;;;;;5061235;28;20207;-77
2022/01/03 03:26:08;;;;;;;5.85;0.98;;;28.00;99.90;;;;;;5072076;28;20200;-76
2022/01/03 03:28:38;;;;;;;5.93;1.00;;;27.90;99.90;;;;;;5072165;28;20217;-77
2022/01/03 03:31:09;;;;;;;6.93;1.05;;;27.80;99.90;;;;;;5071499;28;20685;-77
2022/01/03 03:33:40;;;;;;;7.53;1.20;;;27.80;99.90;;;;;;5063815;28;20197;-76
2022/01/03 03:36:12;;;;;;;5.70;1.10;;;27.80;99.90;;;;;;5052408;28;20206;-76
2022/01/03 03:38:43;;;;;;;6.15;1.10;;;27.70;99.90;;;;;;5060116;28;20220;-77
2022/01/03 03:41:14;;;;;;;6.22;1.02;;;27.70;99.90;;;;;;5072554;28;20263;-76
2022/01/03 03:43:45;;;;;;;7.60;1.13;;;27.70;99.90;;;;;;5071603;28;20197;-76
2022/01/03 03:46:15;;;;;;;6.03;1.00;;;27.80;99.90;;;;;;5066555;28;20194;-78
2022/01/03 03:48:46;;;;;;;8.00;1.02;;;27.90;99.90;;;;;;5065726;28;20699;-77
2022/01/03 03:51:19;;;;;;;6.63;1.33;;;27.80;99.90;;;;;;5075008;28;20598;-77
2022/01/03 03:53:52;;;;;;;5.45;1.13;;;27.70;99.90;;;;;;5074719;28;20675;-77
2022/01/03 03:56:23;;;;;;;5.70;1.13;;;27.70;99.90;;;;;;5066268;28;20208;-77
2022/01/03 03:58:54;;;;;;;6.18;1.50;;;27.60;99.90;;;;;;5055569;28;20224;-77
2022/01/03 04:01:25;;;;;;;4.05;1.00;;;27.60;99.90;;;;;;5064440;28;20560;-77
2022/01/03 04:03:56;;;;;;;7.00;1.17;;;27.60;99.90;;;;;;5074455;28;20193;-78
2022/01/03 04:06:28;;;;;;;6.03;1.10;;;27.50;99.90;;;;;;5075471;28;20564;-78
2022/01/03 04:09:00;;;;;;;7.15;1.33;;;27.70;99.90;;;;;;5071639;28;20205;-77
2022/01/03 04:11:30;;;;;;;4.85;1.13;;;27.70;99.90;;;;;;5055123;28;20197;-77
2022/01/03 04:14:01;;;;;;;6.22;1.20;;;27.70;99.90;;;;;;5055371;28;20635;-78
2022/01/03 04:16:32;;;;;;;4.85;1.10;;;27.70;99.90;;;;;;5055076;28;20194;-79
2022/01/03 04:19:03;;;;;;;4.07;1.20;;;27.80;99.90;;;;;;5058895;28;20217;-78
2022/01/03 04:21:37;;;;;;;5.20;1.02;;;27.90;99.90;;;;;;5075384;28;20193;-78
2022/01/03 04:24:08;;;;;;;6.30;1.48;;;27.90;99.90;;;;;;5074465;28;20300;-79
2022/01/03 04:26:40;;;;;;;7.25;1.48;;;27.80;99.90;;;;;;5075275;28;20197;-79
2022/01/03 04:29:11;;;;;;;5.88;1.35;;;27.70;99.90;;;;;;5072729;28;20221;-79
2022/01/03 04:31:41;;;;;;;6.78;0.90;;;27.50;99.90;;;;;;5075104;28;20197;-78
2022/01/03 04:34:13;;;;;;;4.93;1.00;;;27.50;99.90;;;;;;5073844;28;20197;-78
2022/01/03 04:36:46;;;;;;;6.47;1.13;;;27.40;99.90;;;;;;5074297;28;20553;-78
2022/01/03 04:39:16;;;;;;;5.82;1.23;;;27.40;99.90;;;;;;5069389;28;20217;-79
2022/01/03 04:41:47;;;;;;;7.05;1.20;;;27.50;99.90;;;;;;5075096;28;20193;-78
2022/01/03 04:44:17;;;;;;;4.97;1.30;;;27.60;99.90;;;;;;5074035;28;20197;-79
2022/01/03 04:46:48;;;;;;;6.82;1.30;;;27.70;99.90;;;;;;5054834;28;20205;-80
2022/01/03 04:49:19;;;;;;;5.45;1.20;;;27.80;99.90;;;;;;5057953;28;20200;-78
2022/01/03 04:51:52;;;;;;;5.57;1.02;;;27.80;99.90;;;;;;5054881;28;20197;-78
2022/01/03 04:54:22;;;;;;;6.32;1.02;;;27.90;99.90;;;;;;5064026;28;20660;-78
2022/01/03 04:56:57;;;;;;;9.70;1.40;;;27.90;99.90;;;;;;5074674;28;20192;-78
2022/01/03 04:59:28;;;;;;;6.60;1.38;;;27.90;99.90;;;;;;5073253;28;20299;-77
2022/01/03 05:02:00;;;;;;;6.70;1.15;;;27.80;99.90;;;;;;5074766;28;20691;-79
2022/01/03 05:04:30;;;;;;;9.00;1.30;;;27.90;99.90;;;;;;5073778;28;20641;-78
2022/01/03 05:07:03;;;;;;;6.18;1.13;;;27.90;99.90;;;;;;5074675;28;20535;-79
2022/01/03 05:09:34;;;;;;;4.68;1.08;;;27.80;99.90;;;;;;5057039;28;20280;-78
2022/01/03 05:12:05;;;;;;;6.60;1.20;;;27.80;99.90;;;;;;5074314;28;20189;-77
2022/01/03 05:14:35;;;;;;;5.97;1.10;;;27.90;99.90;;;;;;5072626;28;20711;-79
2022/01/03 05:17:06;;;;;;;5.28;1.10;;;27.80;99.90;;;;;;5074345;28;20240;-78
2022/01/03 05:19:37;;;;;;;6.63;1.27;;;27.70;99.90;;;;;;5068420;28;20225;-77
2022/01/03 05:22:10;;;;;;;6.53;0.98;;;27.80;99.90;;;;;;5054455;28;20196;-78
2022/01/03 05:24:41;;;;;;;7.15;1.20;;;27.80;99.90;;;;;;5065360;28;20288;-78
2022/01/03 05:27:12;;;;;;;10.23;1.52;;;27.50;99.90;;;;;;5073245;28;20189;-78
2022/01/03 05:29:42;;;;;;;6.03;1.25;;;27.20;99.90;;;;;;5074054;28;20236;-79
2022/01/03 05:32:13;;;;;;;6.85;1.45;;;26.80;99.90;;;;;;5073166;28;20239;-77
2022/01/03 05:34:44;;;;;;;9.23;1.50;;;26.70;99.90;;;;;;5073855;28;20193;-78
2022/01/03 05:37:16;;;;;;;7.05;1.30;;;26.80;99.90;;;;;;5066394;28;20197;-77
2022/01/03 05:39:47;;;;;;;10.13;1.45;;;26.80;99.90;;;;;;5071596;28;20228;-78
2022/01/03 05:42:18;;;;;;;6.80;1.20;;;26.70;99.90;;;;;;5072770;28;20609;-77
2022/01/03 05:44:48;;;;;;;6.85;1.30;;;26.60;99.90;;;;;;5055697;28;20615;-77
2022/01/03 05:47:19;;;;;;;6.68;1.50;;;26.50;99.90;;;;;;5053406;28;20201;-78
2022/01/03 05:49:52;;;;;;;7.70;1.30;;;26.40;99.90;;;;;;5066831;28;20258;-79
2022/01/03 05:52:25;;;;;;;6.90;1.42;;;26.30;99.90;;;;;;5071700;28;20297;-78
2022/01/03 05:54:56;;;;;;;6.95;1.10;;;26.40;99.90;;;;;;5066324;28;20198;-77
2022/01/03 05:57:27;;;;;;;6.03;1.42;;;26.40;99.90;;;;;;5053625;28;20251;-77
2022/01/03 05:59:57;;;;;;;7.78;1.58;;;26.40;99.90;;;;;;5059591;28;20221;-77
2022/01/03 06:02:32;;;;;;;7.25;1.60;;;26.40;99.90;;;;;;5073320;28;20193;-77
2022/01/03 06:05:04;;;;;;;7.35;1.30;;;26.40;99.90;;;;;;5062992;28;20193;-79
2022/01/03 06:07:37;;;;;;;5.65;1.25;;;26.50;99.90;;;;;;5053492;28;20190;-77
2022/01/03 06:10:09;;;;;;;7.93;1.30;;;26.50;99.90;;;;;;5062740;28;20258;-76
2022/01/03 06:12:39;;;;;;;6.10;1.20;;;26.50;99.90;;;;;;5073417;28;20216;-76
2022/01/03 06:15:10;;;;;;;7.88;1.45;;;26.50;99.90;;;;;;5061323;28;20205;-77
2022/01/03 06:17:42;;;;;;;5.70;1.20;;;26.30;99.90;;;;;;5053242;28;20555;-77
2022/01/03 06:20:13;;;;;;;6.03;1.00;;;26.30;99.90;;;;;;5064147;28;20204;-78
2022/01/03 06:22:46;;;;;;;5.85;1.30;;;26.20;99.90;;;;;;5071678;28;20196;-76
2022/01/03 06:25:17;;;;;;;7.65;1.05;;;26.10;99.90;;;;;;5072157;28;20200;-77
2022/01/03 06:27:48;;;;;;;7.20;1.30;;;26.10;99.90;;;;;;5072852;28;20674;-77
2022/01/03 06:30:18;;;;;;;5.68;1.10;;;26.10;99.90;;;;;;5070711;28;20181;-76
2022/01/03 06:32:49;;;;;;;4.97;1.15;;;26.20;99.90;;;;;;5067093;28;20201;-77
2022/01/03 06:35:20;;;;;;;4.78;1.17;;;26.40;99.90;;;;;;5059930;28;20205;-77
2022/01/03 06:37:53;;;;;;;7.85;1.27;;;26.60;99.90;;;;;;5053039;28;20194;-78
2022/01/03 06:40:23;;;;;;;4.53;1.10;;;26.70;99.90;;;;;;5056320;28;20656;-78
2022/01/03 06:42:54;;;;;;;4.32;1.00;;;26.70;99.90;;;;;;5069686;28;20624;-79
2022/01/03 06:45:25;;;;;;;4.57;1.10;;;26.80;99.90;;;;;;5052550;28;20575;-78
2022/01/03 06:47:56;;;;;;;6.88;1.10;;;26.90;99.90;;;;;;5054539;28;20198;-78
2022/01/03 06:50:28;;;;;;;5.00;1.20;;;26.90;99.90;;;;;;5072929;28;20196;-78
2022/01/03 06:53:00;;;;;;;4.07;1.10;;;26.90;99.90;;;;;;5055207;28;20205;-80
2022/01/03 06:55:31;;;;;;;7.65;1.45;;;26.80;99.90;;;;;;5056857;28;20201;-78
2022/01/03 06:58:02;;;;;;;7.70;1.15;;;26.70;99.90;;;;;;5072785;28;20192;-78
2022/01/03 07:00:33;;;;;;;3.50;1.00;;;26.70;99.90;;;;;;5069741;28;20206;-77
2022/01/03 07:03:03;;;;;;;5.45;1.20;;;26.70;99.90;;;;;;5072765;28;20192;-78
2022/01/03 07:05:34;;;;;;;6.65;1.20;;;26.60;99.90;;;;;;5069748;28;20193;-77
2022/01/03 07:08:07;;;;;;;5.68;1.25;;;26.60;99.90;;;;;;5052742;28;20202;-78
2022/01/03 07:10:38;;;;;;;4.57;1.17;;;26.60;99.90;;;;;;5051648;28;20208;-78
2022/01/03 07:13:09;;;;;;;9.15;1.05;;;26.50;99.90;;;;;;5052559;28;20236;-78
2022/01/03 07:21:13;;;;;;;2.97;0.85;;;26.20;99.90;;;;;;5055026;28;20204;-78
2022/01/03 07:23:46;;;;;;;7.05;1.35;;;26.20;99.90;;;;;;5056060;28;20209;-79
2022/01/03 07:26:16;;;;;;;4.90;1.00;;;26.30;99.90;;;;;;5062879;28;20208;-79
2022/01/03 07:28:47;;;;;;;5.85;1.13;;;26.20;99.90;;;;;;5075722;28;20224;-78
2022/01/03 07:31:18;;;;;;;5.22;1.00;;;26.20;99.90;;;;;;5068317;28;20197;-78
2022/01/03 07:33:49;;;;;;;4.38;0.80;;;26.20;99.90;;;;;;5056523;28;20194;-79
2022/01/03 07:36:19;;;;;;;5.43;1.02;;;26.20;99.90;;;;;;5063197;28;20216;-79
2022/01/03 07:38:52;;;;;;;3.58;0.88;;;26.20;99.90;;;;;;5072473;28;20224;-79
2022/01/03 07:41:23;;;;;;;5.40;1.20;;;26.10;99.90;;;;;;5056084;28;20201;-78
2022/01/03 07:43:53;;;;;;;4.60;1.02;;;26.10;99.90;;;;;;5056222;28;20208;-78
2022/01/03 07:46:24;;;;;;;7.55;1.25;;;26.10;99.90;;;;;;5056139;28;20570;-78
2022/01/03 07:48:55;;;;;;;5.20;1.42;;;26.20;99.90;;;;;;5055725;28;20691;-79
2022/01/03 07:51:25;;;;;;;6.70;1.50;;;26.10;99.90;;;;;;5056036;28;20196;-78
2022/01/03 07:53:58;;;;;;;6.88;1.20;;;26.00;99.90;;;;;;5072396;28;20258;-80
2022/01/03 07:56:29;;;;;;;5.78;1.45;;;25.90;99.90;;;;;;5069887;28;20193;-78
2022/01/03 07:58:59;;;;;;;6.38;1.55;;;25.90;99.90;;;;;;5074233;28;20224;-78
2022/01/03 08:01:30;;;;;;;8.88;1.48;;;26.00;99.90;;;;;;5075846;28;20184;-77
2022/01/03 08:04:01;;;;;;;8.00;1.40;;;26.00;99.90;;;;;;5074934;28;20204;-80
2022/01/03 08:06:31;;;;;;;9.55;1.48;;;26.00;99.90;;;;;;5075647;28;20189;-79
2022/01/03 08:09:04;;;;;;;7.43;1.35;;;25.90;99.90;;;;;;5058392;28;20204;-77
2022/01/03 08:11:35;;;;;;;8.43;1.48;;;25.90;99.90;;;;;;5055614;28;20657;-78
2022/01/03 08:14:06;;;;;;;7.38;1.30;;;25.90;99.90;;;;;;5054933;28;20252;-79
2022/01/03 08:16:37;;;;;;;5.53;1.52;;;25.90;99.90;;;;;;5055888;28;20285;-77
2022/01/03 08:19:07;;;;;;;6.97;1.58;;;25.80;99.90;;;;;;5055848;28;20217;-78
2022/01/03 08:21:38;;;;;;;7.50;1.70;;;25.80;99.90;;;;;;5075785;28;20208;-77
2022/01/03 08:24:11;;;;;;;7.53;1.70;;;25.70;99.90;;;;;;5074430;28;20653;-77
2022/01/03 08:26:42;;;;;;;9.15;1.50;;;25.70;99.90;;;;;;5074205;28;20524;-78
2022/01/03 08:29:12;;;;;;;8.30;1.50;;;25.60;99.90;;;;;;5072732;28;20228;-78
2022/01/03 08:31:43;;;;;;;6.90;1.42;;;25.60;99.90;;;;;;5075132;28;20185;-79
2022/01/03 08:34:14;;;;;;;5.47;1.38;;;25.50;99.90;;;;;;5073261;28;20193;-77
2022/01/03 08:36:44;;;;;;;7.03;1.48;;;25.40;99.90;;;;;;5061795;28;20202;-78
2022/01/03 08:39:17;;;;;;;7.60;1.63;;;25.40;99.90;;;;;;5057752;28;20729;-77
2022/01/03 08:41:48;;;;;;;9.80;1.88;;;25.30;99.90;;;;;;5059444;28;20199;-78
2022/01/03 08:44:18;;;;;;;8.93;1.73;;;25.20;99.90;;;;;;5055491;28;20225;-78
2022/01/03 08:46:51;;;;;;;8.05;1.48;;;25.10;99.90;;;;;;5062860;28;20610;-77
2022/01/03 08:49:22;;;;;;;10.27;1.90;;;25.10;99.90;;;;;;5074907;28;20276;-78
2022/01/03 08:51:52;;;;;;;10.20;1.83;;;25.00;99.90;;;;;;5073797;28;20201;-78
2022/01/03 08:54:25;;;;;;;8.85;2.33;;;25.00;99.90;;;;;;5054656;28;20190;-78
2022/01/03 08:56:56;;;;;;;9.98;1.60;;;24.90;99.90;;;;;;5074600;28;20664;-77
2022/01/03 08:59:27;;;;;;;11.82;1.95;;;24.90;99.90;;;;;;5073585;28;20680;-78
2022/01/03 09:01:57;;;;;;;10.27;2.00;;;24.80;99.90;;;;;;5074651;28;20642;-78
2022/01/03 09:04:28;;;;;;;9.13;1.90;;;24.70;99.90;;;;;;5073655;28;20196;-78
2022/01/03 09:06:59;;;;;;;6.63;1.70;;;24.60;99.90;;;;;;5073622;28;20209;-78
2022/01/03 09:09:33;;;;;;;9.70;2.13;;;24.60;99.90;;;;;;5062819;28;20201;-78
2022/01/03 09:12:06;;;;;;;10.90;2.00;;;24.60;99.90;;;;;;5054586;28;20193;-78
2022/01/03 09:14:37;;;;;;;11.60;1.98;;;24.60;99.90;;;;;;5066351;28;20233;-78
2022/01/03 09:17:08;;;;;;;8.27;1.75;;;24.50;99.90;;;;;;5074450;28;20193;-78
2022/01/03 09:19:39;;;;;;;9.80;2.10;;;24.40;99.90;;;;;;5070526;28;20262;-78
2022/01/03 09:22:14;;;;;;;9.38;2.10;;;24.40;99.90;;;;;;5077306;28;20190;-78
2022/01/03 09:24:54;;;;;;;10.50;2.20;;;24.30;99.90;;;;;;5071503;28;20207;-78
2022/01/03 09:30:21;;;;;;;10.73;1.85;;;24.20;99.90;;;;;;5026826;28;20199;-78
2022/01/03 09:32:52;;;;;;;8.35;1.83;;;24.20;99.90;;;;;;5061441;28;20204;-79
2022/01/03 09:35:23;;;;;;;13.38;1.85;;;24.20;99.90;;;;;;5062913;28;20254;-80
2022/01/03 09:37:54;;;;;;;11.60;2.17;;;24.10;99.90;;;;;;5072688;28;20203;-80
2022/01/03 09:40:27;;;;;;;10.93;2.15;;;24.10;99.90;;;;;;5070454;28;20271;-79
2022/01/03 09:43:01;;;;;;;14.85;2.00;;;24.10;99.90;;;;;;5065831;28;20204;-79
2022/01/03 09:45:34;;;;;;;10.32;1.83;;;24.00;99.90;;;;;;5086793;28;20578;-79
2022/01/03 09:48:07;;;;;;;9.57;2.00;;;24.00;99.90;;;;;;5078684;28;20246;-80
2022/01/03 09:50:38;;;;;;;7.15;2.20;;;24.00;99.90;;;;;;5075500;28;20284;-79
2022/01/03 09:53:09;;;;;;;11.32;2.20;;;24.10;99.90;;;;;;5074984;28;20196;-79
2022/01/03 09:55:43;;;;;;;15.55;2.40;;;24.00;99.90;;;;;;5076669;28;20590;-79
2022/01/03 09:58:15;;;;;;;11.95;2.00;;;24.00;99.90;;;;;;5081922;28;20253;-77
2022/01/03 10:00:45;;;;;;;12.10;2.03;;;23.90;99.90;;;;;;5086588;28;20216;-78
2022/01/03 10:03:16;;;;;;;12.60;1.85;;;23.90;99.90;;;;;;5072909;28;20212;-77
2022/01/03 10:05:47;;;;;;;7.47;1.73;;;23.90;99.90;;;;;;5070051;28;20202;-77
2022/01/03 10:08:18;;;;;;;11.40;2.20;;;23.90;99.90;;;;;;5068508;28;20219;-78
2022/01/03 10:10:51;;;;;;;11.93;2.05;;;23.80;99.90;;;;;;5058736;28;20205;-77
2022/01/03 10:13:22;;;;;;;11.90;2.30;;;23.80;99.90;;;;;;5073049;28;20232;-76
2022/01/03 10:15:53;;;;;;;9.00;1.80;;;23.80;99.90;;;;;;5072018;28;20193;-77
2022/01/03 10:18:26;;;;;;;15.48;2.30;;;23.80;99.90;;;;;;5073266;28;20636;-78
2022/01/03 10:20:59;;;;;;;9.52;1.88;;;23.80;99.90;;;;;;5071804;28;20216;-77
2022/01/03 10:23:30;;;;;;;15.73;2.30;;;23.70;99.90;;;;;;5059316;28;20189;-77
2022/01/03 10:26:21;;;;;;;14.00;2.13;;;23.70;99.90;;;;;;5053398;28;20194;-76
2022/01/03 10:28:52;;;;;;;13.85;2.05;;;23.70;99.90;;;;;;5078294;28;20213;-77
2022/01/03 10:31:24;;;;;;;11.18;2.20;;;23.70;99.90;;;;;;5070997;28;20227;-76
2022/01/03 10:34:10;;;;;;;12.65;2.30;;;23.70;99.90;;;;;;5073135;28;20243;-77
2022/01/03 10:36:43;;;;;;;14.55;1.92;;;23.70;99.90;;;;;;5078921;28;20631;-76
2022/01/03 10:39:19;;;;;;;13.40;2.42;;;23.70;99.90;;;;;;5083459;28;20205;-76
2022/01/03 10:41:54;;;;;;;8.60;1.90;;;23.70;99.90;;;;;;5077846;28;20192;-78
2022/01/03 10:44:36;;;;;;;11.93;1.88;;;23.70;99.90;;;;;;5073808;28;20197;-77
2022/01/03 10:47:08;;;;;;;9.63;1.90;;;23.70;99.90;;;;;;5081466;28;20628;-77
2022/01/03 10:49:41;;;;;;;12.93;2.00;;;23.70;99.90;;;;;;5080514;28;20215;-78
2022/01/03 10:52:20;;;;;;;12.05;1.95;;;23.70;99.90;;;;;;5071308;28;20193;-78
2022/01/03 10:55:12;;;;;;;10.50;1.92;;;23.60;99.90;;;;;;5066306;28;20200;-78
2022/01/03 10:57:54;;;;;;;9.40;1.70;;;23.60;99.90;;;;;;5074672;28;20197;-77
2022/01/03 11:00:28;;;;;;;11.82;1.85;;;23.60;99.90;;;;;;5072014;28;20220;-79
2022/01/03 11:03:27;;;;;;;11.75;2.03;;;23.60;99.90;;;;;;5075916;28;20198;-77
2022/01/03 11:06:07;;;;;;;11.90;2.40;;;23.60;99.90;;;;;;5077103;28;20645;-78
2022/01/03 11:11:39;;;;;;;12.32;2.03;;;23.50;99.90;;;;;;5076542;28;20195;-77
2022/01/03 11:14:12;;;;;;;10.57;1.90;;;23.50;99.90;;;;;;5073592;28;20692;-78
2022/01/03 11:16:43;;;;;;;16.25;2.15;;;23.50;99.90;;;;;;5076079;28;20613;-77
2022/01/03 11:19:14;;;;;;;12.32;1.85;;;23.50;99.90;;;;;;5071591;28;20727;-78
2022/01/03 11:21:44;;;;;;;12.20;2.47;;;23.50;99.90;;;;;;5074445;28;20680;-76
2022/01/03 11:24:16;;;;;;;10.23;2.20;;;23.50;99.90;;;;;;5071402;28;20196;-77
2022/01/03 11:26:48;;;;;;;10.15;2.00;;;23.40;99.90;;;;;;5072559;28;20232;-77
2022/01/03 11:29:21;;;;;;;12.32;1.98;;;23.40;99.90;;;;;;5070284;28;20231;-77
2022/01/03 11:31:54;;;;;;;14.10;2.53;;;23.40;99.90;;;;;;5064873;28;20665;-77
2022/01/03 11:34:27;;;;;;;10.98;2.20;;;23.40;99.90;;;;;;5071208;28;20213;-78
2022/01/03 11:36:59;;;;;;;8.57;2.10;;;23.30;99.90;;;;;;5069384;28;20221;-76
2022/01/03 11:39:34;;;;;;;10.40;1.90;;;23.30;99.90;;;;;;5064772;28;20193;-76
2022/01/03 11:42:05;;;;;;;12.50;2.13;;;23.30;99.90;;;;;;5076035;28;20207;-76
2022/01/03 11:44:39;;;;;;;9.10;1.92;;;23.30;99.90;;;;;;5072853;28;20565;-78
2022/01/03 11:47:11;;;;;;;11.55;2.10;;;23.30;99.90;;;;;;5072832;28;20203;-76
2022/01/03 11:49:42;;;;;;;10.50;2.00;;;23.20;99.90;;;;;;5076151;28;20278;-76
2022/01/03 11:52:15;;;;;;;10.27;2.15;;;23.20;99.90;;;;;;5080196;28;20197;-77
2022/01/03 11:54:46;;;;;;;17.52;2.50;;;23.20;99.90;;;;;;5091650;28;20365;-76
2022/01/03 11:57:24;;;;;;;15.05;2.03;;;23.20;99.90;;;;;;5070504;28;20198;-76
2022/01/03 12:05:53;;;;;;;11.45;1.98;;;23.20;99.90;;;;;;5076041;28;20195;-76
2022/01/03 12:08:26;;;;;;;10.68;2.10;;;23.20;99.90;;;;;;5085121;28;20698;-76
2022/01/03 12:10:59;;;;;;;9.00;1.63;;;23.20;99.90;;;;;;5067608;28;20197;-76
2022/01/03 12:13:52;;;;;;;12.38;2.03;;;23.20;99.90;;;;;;5067867;28;20236;-76
2022/01/03 12:16:45;;;;;;;7.68;1.70;;;23.20;99.90;;;;;;5088455;28;20189;-76
2022/01/03 12:19:29;;;;;;;7.80;1.60;;;23.20;99.90;;;;;;5062790;28;20276;-76
2022/01/03 12:22:03;;;;;;;12.98;1.63;;;23.10;99.90;;;;;;5075392;28;20217;-76
2022/01/03 12:24:51;;;;;;;14.38;1.92;;;23.10;99.90;;;;;;5074838;28;20224;-77
2022/01/03 12:27:40;;;;;;;14.23;2.15;;;23.10;99.90;;;;;;5081177;28;20222;-76
2022/01/03 12:30:23;;;;;;;10.85;1.88;;;23.10;99.90;;;;;;5061849;28;20202;-76
2022/01/03 12:33:28;;;;;;;6.63;1.73;;;23.10;99.90;;;;;;5072788;28;20202;-76
2022/01/03 12:36:19;;;;;;;11.60;1.85;;;23.10;99.90;;;;;;5080123;28;20192;-76
2022/01/03 12:39:08;;;;;;;12.23;2.15;;;23.00;99.90;;;;;;5085696;28;20220;-78
2022/01/03 12:41:43;;;;;;;11.13;1.90;;;23.00;99.90;;;;;;5093646;28;20227;-78
2022/01/03 12:44:15;;;;;;;9.50;1.90;;;23.00;99.90;;;;;;5084773;28;20246;-77
2022/01/03 12:46:46;;;;;;;7.13;1.90;;;23.00;99.90;;;;;;5084595;28;20212;-78
2022/01/03 12:49:31;;;;;;;13.13;1.60;;;23.00;99.90;;;;;;5078142;28;20203;-78
2022/01/03 12:52:20;;;;;;;8.77;1.85;;;23.00;99.90;;;;;;5074488;28;20204;-77
2022/01/03 12:54:50;;;;;;;9.25;1.85;;;22.90;99.90;;;;;;5077127;28;20284;-77
2022/01/03 12:57:22;;;;;;;7.47;1.88;;;22.90;99.90;;;;;;5068392;28;20193;-78
2022/01/03 12:59:52;;;;;;;5.95;1.35;;;22.90;99.90;;;;;;5074926;28;20700;-78
2022/01/03 13:02:33;;;;;;;9.65;1.98;;;22.90;99.90;;;;;;5072797;28;20197;-78
2022/01/03 13:05:04;;;;;;;8.55;1.73;;;22.90;99.90;;;;;;5069604;28;20203;-78
2022/01/03 13:07:36;;;;;;;8.27;1.92;;;22.80;99.90;;;;;;5068850;28;20615;-78
2022/01/03 13:10:07;;;;;;;13.23;1.80;;;22.80;99.90;;;;;;5070128;28;20213;-78
2022/01/03 13:12:46;;;;;;;11.10;2.08;;;22.80;99.90;;;;;;5075728;28;20185;-77
2022/01/03 13:15:22;;;;;;;9.57;1.95;;;22.80;99.90;;;;;;5062199;28;20200;-77
2022/01/03 13:18:16;;;;;;;7.80;2.22;;;22.80;99.90;;;;;;5054399;28;20660;-78
2022/01/03 13:20:58;;;;;;;9.70;2.08;;;22.80;99.90;;;;;;5082239;28;20744;-78
2022/01/03 13:23:31;;;;;;;7.50;1.70;;;22.70;99.90;;;;;;5085989;28;20204;-78
2022/01/03 13:26:05;;;;;;;7.93;1.75;;;22.70;99.90;;;;;;5074328;28;20247;-78
2022/01/03 13:28:47;;;;;;;7.00;2.25;;;22.70;99.90;;;;;;5078289;28;20670;-78
2022/01/03 13:31:18;;;;;;;8.85;1.70;;;22.70;99.90;;;;;;5090973;28;20644;-78
2022/01/03 13:33:57;;;;;;;8.00;1.58;;;22.70;99.90;;;;;;5063802;28;20254;-78